Time;durP1;ratioP1;P1;durP2;ratioP2;P2;SDS_P1;SDS_P2;PMS_P1;PMS_P2;Temp;Humidity;BMP_temperature;BMP_pressure;BME280_temperature;BME280_humidity;BME280_pressure;Samples;Min_cycle;Max_cycle;Signal;HPM_P1;HPM_P2
2023/08/27 00:00:44;;;;;;;0.00;0.00;;;;;;;;;;5019274;28;20048;-79
2023/08/27 00:03:10;;;;;;;0.00;0.00;;;;;;;;;;5019371;28;20046;-79
2023/08/27 00:05:43;;;;;;;0.00;0.00;;;;;;;;;;5019547;28;20048;-79
2023/08/27 00:08:13;;;;;;;0.00;0.00;;;;;;;;;;5019177;28;20091;-80
2023/08/27 00:10:39;;;;;;;0.00;0.00;;;;;;;;;;5002946;28;20044;-79
2023/08/27 00:13:05;;;;;;;0.00;0.00;;;;;;;;;;5019317;28;20068;-79
2023/08/27 00:15:31;;;;;;;0.00;0.00;;;;;;;;;;5019020;28;20063;-79
2023/08/27 00:17:57;;;;;;;0.00;0.00;;;;;;;;;;5018319;28;20556;-79
2023/08/27 00:20:24;;;;;;;0.00;0.00;;;;;;;;;;5036180;28;20486;-79
2023/08/27 00:22:50;;;;;;;0.00;0.00;;;;;;;;;;5019653;28;20045;-79
2023/08/27 00:25:16;;;;;;;0.00;0.00;;;;;;;;;;5036603;28;20048;-79
2023/08/27 00:27:43;;;;;;;0.00;0.00;;;;;;;;;;5002544;28;20041;-79
2023/08/27 00:30:09;;;;;;;0.00;0.00;;;;;;;;;;5002486;28;20033;-79
2023/08/27 00:32:35;;;;;;;0.00;0.00;;;;;;;;;;5018702;28;20049;-79
2023/08/27 00:35:03;;;;;;;0.00;0.00;;;;;;;;;;5002413;28;20049;-80
2023/08/27 00:37:29;;;;;;;0.00;0.00;;;;;;;;;;5024419;28;20048;-79
2023/08/27 00:39:56;;;;;;;0.00;0.00;;;;;;;;;;5058515;28;20044;-79
2023/08/27 00:42:22;;;;;;;0.00;0.00;;;;;;;;;;5058300;28;20093;-79
2023/08/27 00:44:49;;;;;;;0.00;0.00;;;;;;;;;;5058429;28;20044;-79
2023/08/27 00:47:15;;;;;;;0.00;0.00;;;;;;;;;;5058229;28;20094;-79
2023/08/27 00:49:42;;;;;;;0.00;0.00;;;;;;;;;;5057921;28;20044;-79
2023/08/27 00:52:12;;;;;;;0.10;0.00;;;;;;;;;;5058247;28;20082;-79
2023/08/27 00:54:40;;;;;;;0.00;0.00;;;;;;;;;;5058249;28;20361;-79
2023/08/27 00:57:06;;;;;;;0.00;0.00;;;;;;;;;;5041667;28;20044;-79
2023/08/27 00:59:33;;;;;;;0.00;0.00;;;;;;;;;;5057852;28;20476;-79
2023/08/27 01:01:59;;;;;;;0.00;0.00;;;;;;;;;;5058054;28;20040;-79
2023/08/27 01:04:26;;;;;;;0.00;0.00;;;;;;;;;;5057996;28;20049;-79
2023/08/27 01:06:52;;;;;;;0.00;0.00;;;;;;;;;;5057991;28;20473;-79
2023/08/27 01:09:32;;;;;;;0.00;0.00;;;;;;;;;;5058253;28;20079;-79
2023/08/27 01:12:15;;;;;;;0.75;0.00;;;;;;;;;;5057425;28;20051;-79
2023/08/27 01:14:43;;;;;;;0.00;0.00;;;;;;;;;;5057506;28;20472;-80
2023/08/27 01:17:10;;;;;;;0.00;0.00;;;;;;;;;;5075390;28;20049;-79
2023/08/27 01:19:37;;;;;;;0.00;0.00;;;;;;;;;;5040725;28;20044;-79
2023/08/27 01:22:03;;;;;;;0.00;0.00;;;;;;;;;;5056844;28;20060;-80
2023/08/27 01:24:29;;;;;;;0.00;0.00;;;;;;;;;;5057394;28;20049;-79
2023/08/27 01:27:07;;;;;;;1.67;1.10;;;;;;;;;;5058315;28;20075;-79
2023/08/27 01:29:43;;;;;;;0.00;0.00;;;;;;;;;;5041023;28;20435;-79
2023/08/27 01:32:28;;;;;;;0.00;0.00;;;;;;;;;;5057265;28;20123;-79
2023/08/27 01:34:54;;;;;;;0.20;0.15;;;;;;;;;;5057282;28;20045;-80
2023/08/27 01:37:20;;;;;;;0.00;0.00;;;;;;;;;;5057464;28;20041;-80
2023/08/27 01:39:46;;;;;;;0.00;0.00;;;;;;;;;;5058009;28;20118;-79
2023/08/27 01:42:13;;;;;;;0.03;0.00;;;;;;;;;;5057479;28;20159;-80
2023/08/27 01:44:39;;;;;;;0.00;0.00;;;;;;;;;;5040453;28;20389;-79
2023/08/27 01:47:06;;;;;;;0.00;0.00;;;;;;;;;;5057102;28;20040;-79
2023/08/27 01:49:32;;;;;;;0.00;0.00;;;;;;;;;;5056343;28;20044;-80
2023/08/27 01:51:58;;;;;;;0.00;0.00;;;;;;;;;;5056877;28;20040;-80
2023/08/27 01:54:24;;;;;;;0.45;0.03;;;;;;;;;;5057257;28;20081;-79
2023/08/27 01:56:50;;;;;;;0.00;0.00;;;;;;;;;;5057076;28;20044;-79
2023/08/27 01:59:16;;;;;;;0.00;0.00;;;;;;;;;;5056995;28;20049;-79
2023/08/27 02:01:43;;;;;;;0.00;0.00;;;;;;;;;;5040512;28;20212;-79
2023/08/27 02:04:09;;;;;;;0.00;0.00;;;;;;;;;;5056688;28;20047;-80
2023/08/27 02:06:35;;;;;;;0.00;0.00;;;;;;;;;;5040177;28;20045;-79
2023/08/27 02:09:02;;;;;;;0.00;0.00;;;;;;;;;;5057021;28;20072;-79
2023/08/27 02:11:29;;;;;;;0.00;0.00;;;;;;;;;;5040166;28;20048;-79
2023/08/27 02:13:55;;;;;;;0.00;0.00;;;;;;;;;;5056725;28;20040;-80
2023/08/27 02:16:21;;;;;;;0.00;0.00;;;;;;;;;;5039955;28;20445;-79
2023/08/27 02:18:47;;;;;;;0.10;0.00;;;;;;;;;;5039441;28;20044;-79
2023/08/27 02:21:13;;;;;;;0.00;0.00;;;;;;;;;;5039794;28;20059;-79
2023/08/27 02:23:39;;;;;;;0.00;0.00;;;;;;;;;;5039836;28;20076;-79
2023/08/27 02:26:05;;;;;;;0.00;0.00;;;;;;;;;;5056421;28;20044;-79
2023/08/27 02:28:33;;;;;;;0.00;0.00;;;;;;;;;;5056495;28;20094;-79
2023/08/27 02:30:59;;;;;;;0.00;0.00;;;;;;;;;;5039523;28;20036;-79
2023/08/27 02:33:25;;;;;;;0.10;0.00;;;;;;;;;;5055985;28;20488;-79
2023/08/27 02:35:51;;;;;;;0.20;0.20;;;;;;;;;;5056340;28;20040;-79
2023/08/27 02:38:18;;;;;;;0.00;0.00;;;;;;;;;;5056631;28;20447;-79
2023/08/27 02:40:44;;;;;;;0.00;0.00;;;;;;;;;;5056133;28;20044;-80
2023/08/27 02:43:10;;;;;;;0.00;0.00;;;;;;;;;;5056232;28;20043;-80
2023/08/27 02:45:36;;;;;;;0.00;0.00;;;;;;;;;;5072954;28;20488;-79
2023/08/27 02:48:03;;;;;;;0.00;0.00;;;;;;;;;;5055631;28;20127;-80
2023/08/27 02:50:29;;;;;;;0.00;0.00;;;;;;;;;;5039756;28;20036;-80
2023/08/27 02:52:55;;;;;;;0.00;0.00;;;;;;;;;;5039712;28;20067;-79
2023/08/27 02:55:21;;;;;;;0.00;0.00;;;;;;;;;;5056336;28;20051;-79
2023/08/27 02:57:47;;;;;;;0.00;0.00;;;;;;;;;;5055329;28;20036;-79
2023/08/27 03:00:14;;;;;;;0.00;0.00;;;;;;;;;;5056029;28;20063;-80
2023/08/27 03:02:40;;;;;;;0.00;0.00;;;;;;;;;;5055430;28;20464;-80
2023/08/27 03:05:06;;;;;;;0.25;0.00;;;;;;;;;;5056249;28;20099;-79
2023/08/27 03:07:32;;;;;;;0.00;0.00;;;;;;;;;;5055900;28;20044;-80
2023/08/27 03:09:58;;;;;;;0.00;0.00;;;;;;;;;;5055872;28;20037;-79
2023/08/27 03:12:24;;;;;;;0.00;0.00;;;;;;;;;;5055860;28;20094;-79
2023/08/27 03:14:50;;;;;;;0.08;0.08;;;;;;;;;;5055800;28;20036;-79
2023/08/27 03:17:16;;;;;;;0.00;0.00;;;;;;;;;;5039035;28;20380;-79
2023/08/27 03:19:42;;;;;;;0.00;0.00;;;;;;;;;;5039191;28;20041;-80
2023/08/27 03:22:08;;;;;;;0.00;0.00;;;;;;;;;;5055841;28;20058;-80
2023/08/27 03:24:35;;;;;;;0.00;0.00;;;;;;;;;;5039364;28;20063;-79
2023/08/27 03:27:01;;;;;;;0.00;0.00;;;;;;;;;;5038941;28;20076;-80
2023/08/27 03:29:29;;;;;;;0.00;0.00;;;;;;;;;;5039278;28;20051;-79
2023/08/27 03:31:55;;;;;;;0.00;0.00;;;;;;;;;;5055197;28;20048;-79
2023/08/27 03:34:21;;;;;;;0.00;0.00;;;;;;;;;;5055840;28;20040;-79
2023/08/27 03:36:47;;;;;;;0.00;0.00;;;;;;;;;;5055531;28;20380;-79
2023/08/27 03:39:13;;;;;;;0.00;0.00;;;;;;;;;;5055865;28;20048;-79
2023/08/27 03:41:39;;;;;;;0.00;0.00;;;;;;;;;;5038952;28;20494;-79
2023/08/27 03:44:05;;;;;;;0.00;0.00;;;;;;;;;;5055404;28;20063;-80
2023/08/27 03:46:32;;;;;;;0.00;0.00;;;;;;;;;;5055456;28;20132;-80
2023/08/27 03:49:01;;;;;;;0.00;0.00;;;;;;;;;;5055784;28;20147;-79
2023/08/27 03:51:28;;;;;;;0.00;0.00;;;;;;;;;;5055300;28;20051;-80
2023/08/27 03:54:03;;;;;;;0.00;0.00;;;;;;;;;;5055274;28;20041;-80
2023/08/27 03:56:30;;;;;;;0.00;0.00;;;;;;;;;;5055643;28;20058;-80
2023/08/27 03:58:56;;;;;;;0.10;0.10;;;;;;;;;;5055447;28;20419;-80
2023/08/27 04:01:22;;;;;;;0.10;0.10;;;;;;;;;;5039002;28;20049;-80
2023/08/27 04:03:48;;;;;;;0.00;0.00;;;;;;;;;;5054838;28;20045;-81
2023/08/27 04:06:14;;;;;;;0.30;0.20;;;;;;;;;;5054615;28;20423;-80
2023/08/27 04:08:40;;;;;;;0.00;0.00;;;;;;;;;;5039914;28;20048;-79
2023/08/27 04:11:06;;;;;;;0.00;0.00;;;;;;;;;;5059072;28;20391;-80
2023/08/27 04:13:32;;;;;;;1.35;0.00;;;;;;;;;;5059107;28;20376;-80
2023/08/27 04:15:59;;;;;;;0.00;0.00;;;;;;;;;;5042306;28;20376;-80
2023/08/27 04:18:26;;;;;;;0.00;0.00;;;;;;;;;;5058644;28;20040;-80
2023/08/27 04:20:52;;;;;;;0.00;0.00;;;;;;;;;;5058497;28;20110;-79
2023/08/27 04:23:18;;;;;;;0.00;0.00;;;;;;;;;;5042241;28;20452;-80
2023/08/27 04:25:44;;;;;;;0.00;0.00;;;;;;;;;;5058773;28;20040;-80
2023/08/27 04:28:10;;;;;;;0.00;0.00;;;;;;;;;;5058604;28;20040;-80
2023/08/27 04:30:36;;;;;;;0.05;0.05;;;;;;;;;;5058528;28;20396;-80
2023/08/27 04:33:05;;;;;;;0.00;0.00;;;;;;;;;;5058731;28;20040;-80
2023/08/27 04:35:31;;;;;;;0.00;0.00;;;;;;;;;;5058760;28;20048;-80
2023/08/27 04:37:57;;;;;;;0.00;0.00;;;;;;;;;;5058615;28;20040;-80
2023/08/27 04:40:23;;;;;;;0.00;0.00;;;;;;;;;;5058583;28;20105;-79
2023/08/27 04:42:49;;;;;;;0.00;0.00;;;;;;;;;;5058327;28;20044;-80
2023/08/27 04:45:15;;;;;;;0.00;0.00;;;;;;;;;;5058496;28;20036;-80
2023/08/27 04:47:41;;;;;;;0.00;0.00;;;;;;;;;;5058992;28;20040;-80
2023/08/27 04:50:08;;;;;;;0.00;0.00;;;;;;;;;;5041312;28;20043;-80
2023/08/27 04:52:38;;;;;;;0.00;0.00;;;;;;;;;;5058465;28;20044;-79
2023/08/27 04:55:07;;;;;;;0.00;0.00;;;;;;;;;;5058167;28;20146;-80
2023/08/27 04:57:37;;;;;;;0.00;0.00;;;;;;;;;;5057855;28;20418;-79
2023/08/27 05:00:04;;;;;;;0.00;0.00;;;;;;;;;;5041798;28;20123;-79
2023/08/27 05:02:30;;;;;;;0.00;0.00;;;;;;;;;;5058255;28;20487;-80
2023/08/27 05:04:56;;;;;;;0.00;0.00;;;;;;;;;;5058058;28;20041;-79
2023/08/27 05:07:22;;;;;;;0.85;0.00;;;;;;;;;;5057900;28;20043;-79
2023/08/27 05:09:48;;;;;;;0.10;0.00;;;;;;;;;;5057652;28;20037;-80
2023/08/27 05:12:14;;;;;;;0.00;0.00;;;;;;;;;;5057657;28;20084;-79
2023/08/27 05:14:41;;;;;;;0.00;0.00;;;;;;;;;;5057947;28;20036;-79
2023/08/27 05:17:07;;;;;;;0.10;0.00;;;;;;;;;;5057515;28;20454;-79
2023/08/27 05:19:33;;;;;;;0.00;0.00;;;;;;;;;;5056776;28;20052;-79
2023/08/27 05:22:00;;;;;;;0.00;0.00;;;;;;;;;;5057069;28;20057;-79
2023/08/27 05:24:26;;;;;;;0.00;0.00;;;;;;;;;;5057498;28;20041;-79
2023/08/27 05:26:52;;;;;;;0.00;0.00;;;;;;;;;;5057682;28;20043;-79
2023/08/27 05:29:18;;;;;;;0.00;0.00;;;;;;;;;;5024651;28;20056;-80
2023/08/27 05:31:45;;;;;;;0.05;0.05;;;;;;;;;;5040425;28;20491;-78
2023/08/27 05:34:11;;;;;;;0.93;0.10;;;;;;;;;;5057362;28;20044;-78
2023/08/27 05:36:37;;;;;;;0.10;0.00;;;;;;;;;;5040660;28;20143;-78
2023/08/27 05:39:05;;;;;;;0.00;0.00;;;;;;;;;;5056897;28;20502;-79
2023/08/27 05:41:31;;;;;;;0.00;0.00;;;;;;;;;;5041144;28;20052;-79
2023/08/27 05:43:57;;;;;;;0.05;0.00;;;;;;;;;;5040716;28;20383;-79
2023/08/27 05:46:23;;;;;;;0.08;0.00;;;;;;;;;;5074700;28;20052;-75
2023/08/27 05:48:50;;;;;;;0.90;0.10;;;;;;;;;;5074416;28;20050;-75
2023/08/27 05:51:16;;;;;;;0.32;0.00;;;;;;;;;;5074835;28;20086;-77
2023/08/27 05:53:42;;;;;;;0.00;0.00;;;;;;;;;;5074613;28;20048;-78
2023/08/27 05:56:09;;;;;;;0.10;0.00;;;;;;;;;;5074825;28;20123;-78
2023/08/27 05:58:35;;;;;;;0.00;0.00;;;;;;;;;;5057188;28;20049;-78
2023/08/27 06:01:04;;;;;;;0.13;0.00;;;;;;;;;;5056876;28;20044;-77
2023/08/27 06:03:30;;;;;;;1.25;0.20;;;;;;;;;;5074748;28;20090;-75
2023/08/27 06:05:56;;;;;;;0.00;0.00;;;;;;;;;;5074404;28;20048;-75
2023/08/27 06:08:22;;;;;;;0.00;0.00;;;;;;;;;;5040552;28;20044;-77
2023/08/27 06:10:48;;;;;;;1.60;0.00;;;;;;;;;;5074393;28;20036;-77
2023/08/27 06:13:14;;;;;;;0.00;0.00;;;;;;;;;;5056947;28;20041;-78
2023/08/27 06:15:40;;;;;;;0.00;0.00;;;;;;;;;;5040220;28;20040;-78
2023/08/27 06:18:07;;;;;;;0.00;0.00;;;;;;;;;;5074079;28;20044;-80
2023/08/27 06:20:33;;;;;;;0.00;0.00;;;;;;;;;;5056135;28;20060;-79
2023/08/27 06:23:07;;;;;;;0.00;0.00;;;;;;;;;;5056732;28;20060;-78
2023/08/27 06:25:36;;;;;;;0.00;0.00;;;;;;;;;;5056825;28;20044;-79
2023/08/27 06:28:03;;;;;;;0.00;0.00;;;;;;;;;;5056306;28;20586;-79
2023/08/27 06:30:30;;;;;;;0.00;0.00;;;;;;;;;;5043713;28;20049;-80
2023/08/27 06:32:56;;;;;;;0.00;0.00;;;;;;;;;;5000278;28;20037;-78
2023/08/27 06:35:22;;;;;;;0.00;0.00;;;;;;;;;;5042769;28;20557;-78
2023/08/27 06:37:48;;;;;;;0.00;0.00;;;;;;;;;;5040123;28;20094;-76
2023/08/27 06:40:15;;;;;;;0.00;0.00;;;;;;;;;;5039785;28;20052;-76
2023/08/27 06:42:41;;;;;;;0.00;0.00;;;;;;;;;;5074069;28;20040;-76
2023/08/27 06:45:07;;;;;;;0.00;0.00;;;;;;;;;;5073623;28;20071;-76
2023/08/27 06:47:34;;;;;;;0.00;0.00;;;;;;;;;;5056222;28;20127;-75
2023/08/27 06:50:00;;;;;;;0.13;0.10;;;;;;;;;;5073225;28;20083;-77
2023/08/27 06:52:26;;;;;;;0.65;0.13;;;;;;;;;;5039672;28;20044;-78
2023/08/27 06:54:52;;;;;;;0.00;0.00;;;;;;;;;;5056248;28;20045;-78
2023/08/27 06:57:18;;;;;;;0.00;0.00;;;;;;;;;;5056221;28;20080;-79
2023/08/27 06:59:44;;;;;;;0.20;0.03;;;;;;;;;;5056095;28;20040;-80
2023/08/27 07:02:10;;;;;;;3.83;0.05;;;;;;;;;;5055897;28;20128;-80
2023/08/27 07:04:37;;;;;;;0.00;0.00;;;;;;;;;;5055383;28;20476;-80
2023/08/27 07:07:03;;;;;;;0.00;0.00;;;;;;;;;;5056052;28;20048;-80
2023/08/27 07:09:29;;;;;;;0.00;0.00;;;;;;;;;;5073774;28;20044;-80
2023/08/27 07:11:55;;;;;;;0.00;0.00;;;;;;;;;;5073557;28;20472;-80
2023/08/27 07:14:21;;;;;;;0.00;0.00;;;;;;;;;;5055927;28;20043;-80
2023/08/27 07:16:48;;;;;;;0.00;0.00;;;;;;;;;;5039271;28;20051;-80
2023/08/27 07:19:14;;;;;;;0.00;0.00;;;;;;;;;;5038525;28;20055;-80
2023/08/27 07:21:40;;;;;;;0.00;0.00;;;;;;;;;;5039146;28;20238;-80
2023/08/27 07:24:06;;;;;;;1.10;0.05;;;;;;;;;;5039340;28;20045;-80
2023/08/27 07:26:32;;;;;;;0.13;0.13;;;;;;;;;;5055623;28;20130;-80
2023/08/27 07:28:58;;;;;;;0.00;0.00;;;;;;;;;;5055787;28;20079;-80
2023/08/27 07:31:24;;;;;;;0.00;0.00;;;;;;;;;;5055503;28;20379;-80
2023/08/27 07:33:50;;;;;;;0.00;0.00;;;;;;;;;;5055498;28;20040;-80
2023/08/27 07:36:17;;;;;;;0.00;0.00;;;;;;;;;;5039148;28;20091;-80
2023/08/27 07:38:43;;;;;;;0.00;0.00;;;;;;;;;;5055609;28;20543;-80
2023/08/27 07:41:10;;;;;;;0.08;0.08;;;;;;;;;;5039065;28;20048;-80
2023/08/27 07:43:36;;;;;;;0.00;0.00;;;;;;;;;;5040104;28;20316;-80
2023/08/27 07:46:02;;;;;;;0.00;0.00;;;;;;;;;;5014421;28;20045;-81
2023/08/27 07:48:29;;;;;;;0.00;0.00;;;;;;;;;;5019082;28;20042;-81
2023/08/27 07:50:55;;;;;;;0.00;0.00;;;;;;;;;;5003396;28;20513;-81
2023/08/27 07:53:21;;;;;;;0.00;0.00;;;;;;;;;;5003152;28;20099;-81
2023/08/27 07:55:47;;;;;;;0.00;0.00;;;;;;;;;;5003587;28;20132;-82
2023/08/27 07:58:13;;;;;;;0.00;0.00;;;;;;;;;;5003225;28;20048;-81
2023/08/27 08:00:39;;;;;;;0.00;0.00;;;;;;;;;;5019531;28;20052;-80
2023/08/27 08:03:06;;;;;;;0.00;0.00;;;;;;;;;;5002968;28;20046;-80
2023/08/27 08:05:32;;;;;;;0.00;0.00;;;;;;;;;;5035770;28;20036;-80
2023/08/27 08:07:58;;;;;;;0.08;0.00;;;;;;;;;;5039394;28;20044;-80
2023/08/27 08:10:24;;;;;;;0.00;0.00;;;;;;;;;;5039003;28;20388;-79
2023/08/27 08:12:50;;;;;;;0.00;0.00;;;;;;;;;;5022560;28;20477;-80
2023/08/27 08:15:17;;;;;;;0.00;0.00;;;;;;;;;;5006362;28;20135;-80
2023/08/27 08:17:46;;;;;;;0.10;0.00;;;;;;;;;;5038612;28;20036;-79
2023/08/27 08:20:13;;;;;;;0.00;0.00;;;;;;;;;;5038139;28;20041;-79
2023/08/27 08:22:39;;;;;;;0.00;0.00;;;;;;;;;;5039058;28;20133;-80
2023/08/27 08:25:06;;;;;;;0.00;0.00;;;;;;;;;;5038881;28;20041;-81
2023/08/27 08:27:33;;;;;;;0.10;0.00;;;;;;;;;;5038864;28;20045;-79
2023/08/27 08:29:59;;;;;;;0.03;0.00;;;;;;;;;;5038842;28;20049;-80
2023/08/27 08:32:25;;;;;;;0.30;0.20;;;;;;;;;;5022082;28;20040;-80
2023/08/27 08:34:51;;;;;;;0.28;0.10;;;;;;;;;;5039195;28;20037;-79
2023/08/27 08:37:17;;;;;;;0.00;0.00;;;;;;;;;;5038283;28;20056;-80
2023/08/27 08:39:43;;;;;;;0.13;0.00;;;;;;;;;;5038646;28;20044;-80
2023/08/27 08:42:15;;;;;;;1.45;0.32;;;;;;;;;;5038607;28;20076;-80
2023/08/27 08:45:00;;;;;;;0.00;0.00;;;;;;;;;;5038584;28;20087;-80
2023/08/27 08:47:26;;;;;;;0.00;0.00;;;;;;;;;;5022189;28;20049;-81
2023/08/27 08:49:57;;;;;;;0.00;0.00;;;;;;;;;;5038113;28;20068;-80
2023/08/27 08:52:27;;;;;;;0.00;0.00;;;;;;;;;;5037950;28;20610;-80
2023/08/27 08:54:54;;;;;;;0.00;0.00;;;;;;;;;;5036875;28;20042;-81
2023/08/27 08:57:23;;;;;;;0.00;0.00;;;;;;;;;;5038118;28;20146;-81
2023/08/27 08:59:50;;;;;;;0.17;0.00;;;;;;;;;;5038248;28;20102;-80
2023/08/27 09:02:18;;;;;;;0.00;0.00;;;;;;;;;;5038309;28;20131;-80
2023/08/27 09:04:44;;;;;;;0.00;0.00;;;;;;;;;;5038161;28;20068;-81
2023/08/27 09:07:10;;;;;;;0.00;0.00;;;;;;;;;;5038076;28;20127;-80
2023/08/27 09:09:38;;;;;;;0.15;0.15;;;;;;;;;;5021304;28;20047;-80
2023/08/27 09:12:05;;;;;;;0.03;0.00;;;;;;;;;;5037770;28;20059;-80
2023/08/27 09:14:31;;;;;;;0.00;0.00;;;;;;;;;;5037934;28;20136;-80
2023/08/27 09:16:58;;;;;;;0.00;0.00;;;;;;;;;;5021213;28;20052;-80
2023/08/27 09:19:24;;;;;;;0.00;0.00;;;;;;;;;;5037620;28;20045;-79
2023/08/27 09:21:50;;;;;;;0.08;0.08;;;;;;;;;;5055104;28;20049;-79
2023/08/27 09:24:16;;;;;;;0.00;0.00;;;;;;;;;;5037763;28;20182;-81
2023/08/27 09:26:42;;;;;;;0.00;0.00;;;;;;;;;;5021431;28;20033;-80
2023/08/27 09:29:09;;;;;;;0.00;0.00;;;;;;;;;;5037709;28;20045;-80
2023/08/27 09:31:39;;;;;;;0.00;0.00;;;;;;;;;;5020929;28;20135;-80
2023/08/27 09:34:05;;;;;;;0.00;0.00;;;;;;;;;;5020763;28;20080;-80
2023/08/27 09:36:36;;;;;;;0.00;0.00;;;;;;;;;;5020766;28;20082;-80
2023/08/27 09:39:07;;;;;;;0.00;0.00;;;;;;;;;;5020841;28;20134;-80
2023/08/27 09:41:36;;;;;;;0.00;0.00;;;;;;;;;;5037579;28;20049;-80
2023/08/27 09:44:08;;;;;;;0.00;0.00;;;;;;;;;;5037454;28;20041;-80
2023/08/27 09:46:37;;;;;;;0.63;0.10;;;;;;;;;;5037695;28;20124;-80
2023/08/27 09:49:07;;;;;;;0.05;0.00;;;;;;;;;;5036924;28;20045;-80
2023/08/27 09:51:38;;;;;;;0.03;0.00;;;;;;;;;;5020493;28;20045;-80
2023/08/27 09:54:14;;;;;;;0.00;0.00;;;;;;;;;;5037546;28;20373;-80
2023/08/27 09:56:43;;;;;;;0.00;0.00;;;;;;;;;;5037264;28;20048;-80
2023/08/27 09:59:09;;;;;;;0.00;0.00;;;;;;;;;;5037065;28;20045;-80
2023/08/27 10:01:35;;;;;;;0.00;0.00;;;;;;;;;;5020752;28;20044;-80
2023/08/27 10:04:07;;;;;;;0.00;0.00;;;;;;;;;;5037027;28;20135;-80
2023/08/27 10:06:40;;;;;;;0.52;0.10;;;;;;;;;;5020297;28;20114;-80
2023/08/27 10:09:06;;;;;;;0.00;0.00;;;;;;;;;;5036932;28;20036;-80
2023/08/27 10:11:36;;;;;;;0.00;0.00;;;;;;;;;;5036804;28;20118;-80
2023/08/27 10:14:03;;;;;;;0.00;0.00;;;;;;;;;;5036825;28;20095;-80
2023/08/27 10:16:30;;;;;;;0.00;0.00;;;;;;;;;;5036664;28;20440;-80
2023/08/27 10:19:01;;;;;;;0.00;0.00;;;;;;;;;;5036380;28;20040;-80
2023/08/27 10:21:27;;;;;;;0.00;0.00;;;;;;;;;;5036347;28;20053;-80
2023/08/27 10:23:53;;;;;;;0.00;0.00;;;;;;;;;;5020556;28;20053;-80
2023/08/27 10:26:19;;;;;;;0.10;0.00;;;;;;;;;;5036545;28;20048;-80
2023/08/27 10:28:45;;;;;;;0.17;0.17;;;;;;;;;;5036124;28;20041;-81
2023/08/27 10:31:13;;;;;;;0.10;0.00;;;;;;;;;;5020473;28;20041;-80
2023/08/27 10:33:39;;;;;;;0.20;0.00;;;;;;;;;;5036658;28;20439;-81
2023/08/27 10:36:08;;;;;;;0.00;0.00;;;;;;;;;;5036360;28;20040;-80
2023/08/27 10:38:35;;;;;;;0.00;0.00;;;;;;;;;;5036658;28;20424;-80
2023/08/27 10:41:02;;;;;;;0.20;0.20;;;;;;;;;;5054063;28;20044;-80
2023/08/27 10:43:32;;;;;;;4.72;0.70;;;;;;;;;;5036029;28;20166;-80
2023/08/27 10:46:09;;;;;;;0.00;0.00;;;;;;;;;;5020159;28;20059;-80
2023/08/27 10:48:37;;;;;;;1.20;0.55;;;;;;;;;;5020217;28;20098;-85
2023/08/27 10:51:26;;;;;;;0.00;0.00;;;;;;;;;;5019634;28;20045;-80
2023/08/27 10:53:52;;;;;;;0.00;0.00;;;;;;;;;;5035993;28;20059;-80
2023/08/27 10:56:37;;;;;;;0.10;0.00;;;;;;;;;;5036096;28;20126;-81
2023/08/27 10:59:10;;;;;;;0.00;0.00;;;;;;;;;;5036194;28;20051;-79
2023/08/27 11:01:38;;;;;;;0.10;0.10;;;;;;;;;;5035803;28;20045;-80
2023/08/27 11:04:06;;;;;;;0.00;0.00;;;;;;;;;;5036096;28;20496;-80
2023/08/27 11:06:33;;;;;;;0.00;0.00;;;;;;;;;;5019400;28;20041;-80
2023/08/27 11:09:00;;;;;;;0.45;0.10;;;;;;;;;;5035918;28;20102;-80
2023/08/27 11:11:27;;;;;;;0.00;0.00;;;;;;;;;;5035879;28;20044;-79
2023/08/27 11:14:05;;;;;;;0.00;0.00;;;;;;;;;;5019539;28;20215;-80
2023/08/27 11:16:31;;;;;;;0.00;0.00;;;;;;;;;;5019475;28;20045;-79
2023/08/27 11:18:57;;;;;;;0.00;0.00;;;;;;;;;;5018181;28;20037;-80
2023/08/27 11:21:27;;;;;;;0.00;0.00;;;;;;;;;;5035349;28;20051;-80
2023/08/27 11:24:11;;;;;;;0.10;0.08;;;;;;;;;;5035794;28;20052;-79
2023/08/27 11:26:37;;;;;;;0.00;0.00;;;;;;;;;;5035752;28;20052;-80
2023/08/27 11:29:04;;;;;;;0.00;0.00;;;;;;;;;;5035526;28;20049;-79
2023/08/27 11:31:30;;;;;;;0.00;0.00;;;;;;;;;;5035211;28;20044;-81
2023/08/27 11:33:57;;;;;;;0.00;0.00;;;;;;;;;;5035464;28;20064;-80
2023/08/27 11:36:23;;;;;;;0.00;0.00;;;;;;;;;;5035694;28;20047;-79
2023/08/27 11:38:49;;;;;;;0.10;0.00;;;;;;;;;;5035602;28;20416;-79
2023/08/27 11:41:15;;;;;;;0.00;0.00;;;;;;;;;;5035584;28;20040;-80
2023/08/27 11:43:41;;;;;;;0.10;0.00;;;;;;;;;;5035647;28;20063;-79
2023/08/27 11:46:22;;;;;;;0.00;0.00;;;;;;;;;;5053134;28;20055;-80
2023/08/27 11:48:49;;;;;;;0.00;0.00;;;;;;;;;;5035055;28;20091;-81
2023/08/27 11:51:15;;;;;;;0.00;0.00;;;;;;;;;;5035490;28;20041;-79
2023/08/27 11:53:45;;;;;;;0.00;0.00;;;;;;;;;;5035577;28;20037;-80
2023/08/27 11:56:17;;;;;;;0.00;0.00;;;;;;;;;;5035407;28;20041;-80
2023/08/27 11:58:44;;;;;;;0.00;0.00;;;;;;;;;;5035551;28;20091;-80
2023/08/27 12:01:14;;;;;;;0.00;0.00;;;;;;;;;;5035388;28;20496;-80
2023/08/27 12:03:41;;;;;;;0.00;0.00;;;;;;;;;;5018830;28;20468;-80
2023/08/27 12:06:15;;;;;;;0.00;0.00;;;;;;;;;;5019090;28;20045;-81
2023/08/27 12:08:41;;;;;;;0.00;0.00;;;;;;;;;;5018970;28;20041;-82
2023/08/27 12:11:07;;;;;;;0.00;0.00;;;;;;;;;;5002440;28;20836;-81
2023/08/27 12:13:34;;;;;;;0.00;0.00;;;;;;;;;;5035500;28;20048;-79
2023/08/27 12:16:03;;;;;;;0.00;0.00;;;;;;;;;;5035543;28;20140;-79
2023/08/27 12:18:35;;;;;;;0.13;0.03;;;;;;;;;;5035403;28;20492;-78
2023/08/27 12:21:08;;;;;;;0.00;0.00;;;;;;;;;;5034625;28;20350;-80
2023/08/27 12:23:34;;;;;;;0.00;0.00;;;;;;;;;;5035367;28;20465;-80
2023/08/27 12:26:02;;;;;;;0.00;0.00;;;;;;;;;;5035335;28;20044;-79
2023/08/27 12:28:29;;;;;;;0.00;0.00;;;;;;;;;;5035278;28;20045;-80
2023/08/27 12:30:59;;;;;;;0.00;0.00;;;;;;;;;;5020078;28;20057;-80
2023/08/27 12:33:42;;;;;;;0.00;0.00;;;;;;;;;;5051803;28;20044;-80
2023/08/27 12:36:08;;;;;;;0.10;0.00;;;;;;;;;;5048867;28;20068;-81
2023/08/27 12:38:35;;;;;;;0.00;0.00;;;;;;;;;;5038012;28;20041;-81
2023/08/27 12:41:01;;;;;;;0.22;0.00;;;;;;;;;;5052628;28;20496;-86
2023/08/27 12:43:28;;;;;;;1.15;0.03;;;;;;;;;;5033907;28;20582;-80
2023/08/27 12:45:54;;;;;;;0.00;0.00;;;;;;;;;;5039049;28;20045;-80
2023/08/27 12:48:21;;;;;;;0.00;0.00;;;;;;;;;;5037354;28;20036;-80
2023/08/27 12:50:47;;;;;;;0.00;0.00;;;;;;;;;;5035588;28;20533;-81
2023/08/27 12:53:13;;;;;;;0.00;0.00;;;;;;;;;;5053645;28;20048;-81
2023/08/27 12:55:39;;;;;;;0.00;0.00;;;;;;;;;;5037159;28;20044;-81
2023/08/27 12:58:05;;;;;;;0.00;0.00;;;;;;;;;;5042399;28;20041;-80
2023/08/27 13:00:31;;;;;;;0.00;0.00;;;;;;;;;;5043085;28;20127;-80
2023/08/27 13:02:57;;;;;;;0.00;0.00;;;;;;;;;;5048723;28;20036;-80
2023/08/27 13:05:23;;;;;;;0.00;0.00;;;;;;;;;;5049035;28;20045;-79
2023/08/27 13:07:49;;;;;;;0.00;0.00;;;;;;;;;;5036948;28;20045;-79
2023/08/27 13:10:16;;;;;;;0.30;0.13;;;;;;;;;;5038015;28;20362;-79
2023/08/27 13:12:42;;;;;;;0.00;0.00;;;;;;;;;;5021081;28;20068;-80
2023/08/27 13:15:08;;;;;;;0.00;0.00;;;;;;;;;;5038067;28;20068;-80
2023/08/27 13:17:34;;;;;;;0.00;0.00;;;;;;;;;;5021355;28;20041;-79
2023/08/27 13:20:06;;;;;;;0.00;0.00;;;;;;;;;;5020468;28;20432;-80
2023/08/27 13:22:32;;;;;;;0.00;0.00;;;;;;;;;;5037500;28;20052;-80
2023/08/27 13:24:58;;;;;;;0.00;0.00;;;;;;;;;;5037841;28;20048;-80
2023/08/27 13:27:24;;;;;;;0.00;0.00;;;;;;;;;;5055096;28;20048;-81
2023/08/27 13:29:50;;;;;;;0.00;0.00;;;;;;;;;;5036196;28;20097;-84
2023/08/27 13:32:16;;;;;;;0.00;0.00;;;;;;;;;;5046780;28;20499;-80
2023/08/27 13:34:42;;;;;;;0.00;0.00;;;;;;;;;;5056231;28;20125;-81
2023/08/27 13:37:08;;;;;;;0.00;0.00;;;;;;;;;;5056305;28;20040;-81
2023/08/27 13:39:34;;;;;;;0.00;0.00;;;;;;;;;;5040304;28;20526;-81
2023/08/27 13:42:04;;;;;;;0.10;0.10;;;;;;;;;;5037409;28;20069;-80
2023/08/27 13:44:30;;;;;;;0.00;0.00;;;;;;;;;;5035970;28;20481;-81
2023/08/27 13:46:56;;;;;;;0.00;0.00;;;;;;;;;;5036274;28;20548;-81
2023/08/27 13:49:22;;;;;;;0.00;0.00;;;;;;;;;;5035904;28;20041;-80
2023/08/27 13:51:48;;;;;;;0.00;0.00;;;;;;;;;;5024837;28;20041;-81
2023/08/27 13:54:14;;;;;;;0.00;0.00;;;;;;;;;;5003324;28;20451;-81
2023/08/27 13:56:40;;;;;;;0.00;0.00;;;;;;;;;;5019959;28;20114;-79
2023/08/27 13:59:06;;;;;;;0.00;0.00;;;;;;;;;;5019869;28;20131;-78
2023/08/27 14:01:32;;;;;;;0.00;0.00;;;;;;;;;;5035656;28;20049;-82
2023/08/27 14:03:59;;;;;;;0.00;0.00;;;;;;;;;;5038391;28;20489;-80
2023/08/27 14:06:25;;;;;;;0.00;0.00;;;;;;;;;;5044463;28;20066;-81
2023/08/27 14:08:52;;;;;;;0.08;0.00;;;;;;;;;;5019364;28;20044;-80
2023/08/27 14:11:18;;;;;;;0.00;0.00;;;;;;;;;;5035574;28;20052;-80
2023/08/27 14:13:44;;;;;;;0.00;0.00;;;;;;;;;;5035605;28;20045;-80
2023/08/27 14:16:12;;;;;;;0.05;0.00;;;;;;;;;;5043955;28;20037;-80
2023/08/27 14:18:38;;;;;;;0.00;0.00;;;;;;;;;;5035910;28;20037;-80
2023/08/27 14:21:04;;;;;;;0.15;0.00;;;;;;;;;;5052528;28;20064;-80
2023/08/27 14:23:31;;;;;;;0.00;0.00;;;;;;;;;;5002917;28;20128;-81
2023/08/27 14:25:57;;;;;;;0.00;0.00;;;;;;;;;;5035751;28;20052;-80
2023/08/27 14:28:23;;;;;;;0.00;0.00;;;;;;;;;;5053578;28;20434;-80
2023/08/27 14:30:49;;;;;;;0.00;0.00;;;;;;;;;;5039050;28;20033;-80
2023/08/27 14:33:15;;;;;;;0.00;0.00;;;;;;;;;;5056465;28;20048;-80
2023/08/27 14:35:41;;;;;;;0.10;0.00;;;;;;;;;;5056501;28;20377;-79
2023/08/27 14:38:07;;;;;;;0.00;0.00;;;;;;;;;;5056240;28;20431;-80
2023/08/27 14:40:35;;;;;;;0.00;0.00;;;;;;;;;;5039710;28;20044;-79
2023/08/27 14:43:01;;;;;;;0.00;0.00;;;;;;;;;;5039780;28;20473;-79